createdAt,value
2019-05-13T00:00:37.564Z,11.47
2019-05-13T00:03:09.043Z,13.03
2019-05-13T00:05:39.089Z,10.77
2019-05-13T00:08:10.423Z,13.43
2019-05-13T00:10:40.542Z,13.17
2019-05-13T00:13:10.916Z,12.23
2019-05-13T00:15:41.197Z,11.53
2019-05-13T00:18:11.555Z,16.33
2019-05-13T00:20:44.122Z,13.10
2019-05-13T00:23:14.337Z,9.50
2019-05-13T00:25:44.715Z,9.50
2019-05-13T00:28:15.619Z,11.40
2019-05-13T00:30:45.742Z,12.30
2019-05-13T00:33:16.128Z,8.57
2019-05-13T00:35:46.457Z,11.00
2019-05-13T00:38:18.218Z,11.10
2019-05-13T00:40:48.750Z,10.67
2019-05-13T00:43:18.889Z,7.97
2019-05-13T00:45:49.710Z,11.03
2019-05-13T00:48:20.431Z,13.37
2019-05-13T00:50:50.461Z,8.23
2019-05-13T00:53:20.456Z,14.77
2019-05-13T00:55:50.882Z,15.63
2019-05-13T00:58:21.265Z,12.77
2019-05-13T01:00:51.381Z,10.07
2019-05-13T01:03:21.669Z,13.97
2019-05-13T01:05:53.559Z,8.40
2019-05-13T01:08:25.585Z,12.27
2019-05-13T01:10:55.613Z,9.17
2019-05-13T01:13:25.661Z,10.53
2019-05-13T01:15:55.944Z,16.60
2019-05-13T01:18:26.275Z,11.33
2019-05-13T01:20:56.290Z,12.37
2019-05-13T01:23:26.602Z,11.03
2019-05-13T01:25:56.628Z,10.60
2019-05-13T01:28:26.966Z,9.70
2019-05-13T01:30:56.899Z,9.30
2019-05-13T01:33:27.770Z,9.10
2019-05-13T01:35:57.916Z,8.87
2019-05-13T01:38:27.969Z,12.00
2019-05-13T01:40:59.410Z,7.60
2019-05-13T01:43:29.488Z,12.27
2019-05-13T01:45:59.621Z,8.43
2019-05-13T01:48:29.968Z,6.97
2019-05-13T01:51:00.046Z,11.73
2019-05-13T01:53:30.445Z,7.70
2019-05-13T01:56:00.655Z,8.23
2019-05-13T01:58:31.121Z,10.47
2019-05-13T02:01:01.271Z,7.37
2019-05-13T02:03:33.837Z,9.87
2019-05-13T02:06:03.986Z,17.33
2019-05-13T02:08:34.227Z,9.43
2019-05-13T02:11:04.738Z,11.63
2019-05-13T02:13:35.146Z,11.53
2019-05-13T02:16:05.100Z,11.67
2019-05-13T02:18:35.080Z,9.63
2019-05-13T02:21:05.741Z,10.53
2019-05-13T02:23:36.250Z,14.70
2019-05-13T02:26:06.684Z,11.30
2019-05-13T02:28:37.015Z,12.63
2019-05-13T02:31:07.626Z,11.20
2019-05-13T02:33:37.845Z,16.87
2019-05-13T02:36:07.889Z,13.33
2019-05-13T02:38:37.895Z,12.33
2019-05-13T02:41:08.103Z,10.30
2019-05-13T02:43:41.336Z,9.57
2019-05-13T02:46:12.879Z,8.73
2019-05-13T02:48:42.382Z,15.37
2019-05-13T02:51:13.331Z,10.17
2019-05-13T02:53:43.819Z,10.00
2019-05-13T02:56:14.458Z,10.20
2019-05-13T02:58:44.774Z,11.17
2019-05-13T03:01:14.848Z,9.90
2019-05-13T03:03:44.944Z,12.73
2019-05-13T03:06:14.921Z,11.63
2019-05-13T03:08:49.853Z,9.50
2019-05-13T03:11:16.622Z,12.40
2019-05-13T03:13:46.604Z,12.53
2019-05-13T03:16:35.592Z,11.20
2019-05-13T03:19:06.021Z,14.17
2019-05-13T03:21:36.410Z,9.10
2019-05-13T03:24:06.515Z,9.73
2019-05-13T03:26:36.516Z,12.13
2019-05-13T03:29:06.601Z,9.23
2019-05-13T03:31:36.909Z,15.23
2019-05-13T03:34:07.656Z,10.23
2019-05-13T03:36:45.063Z,11.93
2019-05-13T03:39:16.356Z,13.00
2019-05-13T03:41:45.677Z,10.30
2019-05-13T03:44:19.155Z,12.60
2019-05-13T03:46:52.903Z,11.00
2019-05-13T03:49:27.060Z,11.97
2019-05-13T03:51:58.089Z,14.63
2019-05-13T03:54:28.370Z,10.03
2019-05-13T03:56:58.616Z,12.80
2019-05-13T03:59:28.846Z,12.57
2019-05-13T04:02:02.569Z,14.97
2019-05-13T04:04:32.614Z,13.53
2019-05-13T04:07:03.192Z,10.77
2019-05-13T04:09:36.395Z,10.83
2019-05-13T04:12:05.777Z,14.03
2019-05-13T04:14:36.192Z,10.20
2019-05-13T04:17:06.528Z,8.93
2019-05-13T04:19:36.525Z,10.73
2019-05-13T04:22:06.957Z,10.57
2019-05-13T04:24:37.833Z,14.97
2019-05-13T04:27:07.768Z,10.07
2019-05-13T04:29:38.889Z,9.10
2019-05-13T04:32:12.310Z,13.80
2019-05-13T04:34:42.505Z,8.20
2019-05-13T04:37:13.425Z,11.53
2019-05-13T04:39:51.290Z,10.73
2019-05-13T04:42:18.077Z,9.53
2019-05-13T04:44:49.401Z,9.77
2019-05-13T04:47:22.799Z,8.77
2019-05-13T04:49:53.586Z,11.97
2019-05-13T04:52:27.279Z,9.57
2019-05-13T04:54:57.471Z,8.67
2019-05-13T04:57:27.427Z,7.53
2019-05-13T04:59:58.640Z,6.80
2019-05-13T05:02:57.841Z,4.33
2019-05-13T05:05:43.182Z,6.90
2019-05-13T05:08:56.025Z,8.53
2019-05-13T05:12:02.290Z,7.53
2019-05-13T05:14:46.331Z,4.27
2019-05-13T05:17:43.064Z,5.87
2019-05-13T05:20:28.483Z,7.17
2019-05-13T05:23:23.954Z,2.87
2019-05-13T05:26:24.678Z,8.20
2019-05-13T05:32:24.972Z,9.87
2019-05-13T05:35:12.159Z,4.53
2019-05-13T05:38:17.059Z,5.53
2019-05-13T05:40:51.106Z,10.70
2019-05-13T05:43:22.413Z,6.60
2019-05-13T05:45:54.481Z,5.63
2019-05-13T05:48:27.116Z,4.97
2019-05-13T05:50:58.409Z,9.40
2019-05-13T05:53:31.957Z,4.93
2019-05-13T05:56:03.965Z,3.63
2019-05-13T05:58:35.277Z,5.10
2019-05-13T06:01:07.567Z,4.70
2019-05-13T06:03:38.621Z,4.37
2019-05-13T06:06:12.476Z,2.97
2019-05-13T06:08:43.442Z,3.83
2019-05-13T06:11:14.489Z,3.83
2019-05-13T06:13:44.890Z,4.17
2019-05-13T06:16:15.473Z,7.70
2019-05-13T06:18:45.432Z,2.73
2019-05-13T06:21:16.339Z,2.53
2019-05-13T06:23:47.473Z,4.13
2019-05-13T06:26:18.159Z,3.90
2019-05-13T06:28:48.687Z,7.80
2019-05-13T06:31:21.566Z,8.10
2019-05-13T06:33:53.668Z,3.67
2019-05-13T06:36:24.073Z,5.17
2019-05-13T06:38:54.031Z,6.47
2019-05-13T06:41:24.884Z,2.77
2019-05-13T06:43:57.015Z,5.80
2019-05-13T06:46:27.636Z,8.30
2019-05-13T06:48:57.769Z,6.77
2019-05-13T06:51:28.385Z,2.53
2019-05-13T06:54:02.319Z,2.47
2019-05-13T06:56:33.142Z,3.83
2019-05-13T06:59:03.445Z,5.03
2019-05-13T07:01:34.067Z,3.97
2019-05-13T07:04:04.498Z,2.97
2019-05-13T07:06:34.708Z,3.70
2019-05-13T07:09:07.144Z,3.27
2019-05-13T07:11:37.747Z,7.87
2019-05-13T07:14:08.104Z,7.63
2019-05-13T07:16:38.917Z,2.10
2019-05-13T07:19:08.937Z,4.33
2019-05-13T07:21:41.713Z,4.47
2019-05-13T07:24:12.700Z,4.73
2019-05-13T07:26:43.374Z,9.37
2019-05-13T07:29:14.325Z,5.80
2019-05-13T07:31:45.661Z,3.80
2019-05-13T07:34:16.200Z,4.60
2019-05-13T07:36:46.451Z,2.30
2019-05-13T07:39:16.614Z,8.77
2019-05-13T07:41:46.717Z,3.67
2019-05-13T07:44:22.334Z,3.80
2019-05-13T07:46:52.508Z,5.83
2019-05-13T07:49:22.698Z,8.77
2019-05-13T07:51:53.259Z,3.80
2019-05-13T07:54:23.584Z,5.87
2019-05-13T07:56:53.540Z,5.57
2019-05-13T07:59:23.825Z,5.47
2019-05-13T08:01:54.097Z,3.30
2019-05-13T08:04:26.666Z,5.40
2019-05-13T08:06:57.152Z,4.97
2019-05-13T08:09:27.261Z,9.47
2019-05-13T08:12:06.367Z,7.63
2019-05-13T08:14:32.384Z,3.43
2019-05-13T08:17:02.839Z,5.77
2019-05-13T08:19:33.489Z,2.83
2019-05-13T08:22:03.717Z,3.33
2019-05-13T08:24:34.268Z,3.70
2019-05-13T08:27:04.357Z,3.73
2019-05-13T08:29:34.794Z,4.53
2019-05-13T08:32:05.939Z,5.03
2019-05-13T08:34:36.394Z,5.93
2019-05-13T08:37:06.697Z,5.93
2019-05-13T08:39:38.610Z,3.20
2019-05-13T08:42:18.794Z,5.33
2019-05-13T08:44:41.669Z,6.53
2019-05-13T08:47:13.744Z,7.33
2019-05-13T08:49:45.409Z,8.53
2019-05-13T08:52:15.812Z,6.40
2019-05-13T08:54:47.355Z,6.43
2019-05-13T08:57:18.473Z,9.53
2019-05-13T08:59:51.532Z,4.90
2019-05-13T09:02:22.300Z,8.77
2019-05-13T09:04:52.882Z,6.33
2019-05-13T09:07:24.573Z,5.70
2019-05-13T09:09:55.256Z,5.53
2019-05-13T09:12:32.086Z,5.70
2019-05-13T09:14:58.881Z,6.63
2019-05-13T09:17:29.039Z,9.33
2019-05-13T09:20:02.516Z,2.90
2019-05-13T09:22:33.699Z,5.50
2019-05-13T09:25:03.847Z,5.77
2019-05-13T09:27:33.984Z,5.63
2019-05-13T09:30:04.813Z,12.50
2019-05-13T09:32:35.101Z,3.17
2019-05-13T09:35:05.558Z,3.47
2019-05-13T09:37:35.539Z,3.47
2019-05-13T09:40:06.614Z,8.10
2019-05-13T09:42:48.148Z,3.77
2019-05-13T09:45:12.284Z,4.77
2019-05-13T09:47:42.506Z,2.80
2019-05-13T09:50:27.647Z,3.27
2019-05-13T09:52:45.925Z,3.63
2019-05-13T09:55:26.344Z,6.27
2019-05-13T09:57:48.724Z,5.27
2019-05-13T10:00:21.741Z,8.30
2019-05-13T10:02:51.765Z,2.97
2019-05-13T10:05:22.459Z,4.57
2019-05-13T10:07:53.004Z,2.40
2019-05-13T10:10:23.355Z,4.73
2019-05-13T10:13:08.238Z,4.37
2019-05-13T10:15:25.758Z,6.50
2019-05-13T10:17:55.899Z,3.13
2019-05-13T10:20:43.879Z,3.63
2019-05-13T10:23:14.556Z,5.67
2019-05-13T10:25:46.196Z,6.37
2019-05-13T10:28:16.643Z,4.43
2019-05-13T10:30:47.476Z,2.60
2019-05-13T10:33:17.518Z,4.87
2019-05-13T10:35:52.504Z,2.60
2019-05-13T10:38:27.534Z,3.40
2019-05-13T10:40:55.359Z,2.63
2019-05-13T10:43:46.007Z,3.80
2019-05-13T10:46:22.302Z,2.13
2019-05-13T10:48:55.016Z,3.33
2019-05-13T10:51:32.659Z,4.13
2019-05-13T10:54:04.974Z,5.00
2019-05-13T10:56:38.707Z,3.10
2019-05-13T10:59:12.360Z,3.63
2019-05-13T11:01:46.482Z,3.10
2019-05-13T11:04:21.877Z,2.37
2019-05-13T11:06:52.574Z,3.90
2019-05-13T11:09:23.699Z,8.20
2019-05-13T11:12:01.977Z,1.97
2019-05-13T11:14:33.555Z,5.13
2019-05-13T11:17:06.651Z,4.63
2019-05-13T11:19:38.320Z,2.67
2019-05-13T11:22:12.321Z,4.63
2019-05-13T11:24:44.064Z,2.13
2019-05-13T11:27:14.612Z,2.90
2019-05-13T11:29:46.970Z,8.47
2019-05-13T11:32:22.396Z,3.27
2019-05-13T11:34:54.109Z,2.47
2019-05-13T11:37:26.196Z,3.83
2019-05-13T11:40:02.832Z,6.70
2019-05-13T11:42:32.940Z,4.70
2019-05-13T11:45:05.116Z,2.63
2019-05-13T11:47:37.230Z,4.63
2019-05-13T11:50:11.573Z,3.80
2019-05-13T11:52:43.337Z,4.37
2019-05-13T11:55:15.852Z,4.13
2019-05-13T11:57:48.144Z,7.13
2019-05-13T12:00:44.167Z,2.30
2019-05-13T12:03:18.582Z,4.53
2019-05-13T12:05:49.291Z,4.60
2019-05-13T12:08:22.724Z,2.40
2019-05-13T12:10:53.997Z,3.77
2019-05-13T12:13:24.452Z,5.00
2019-05-13T12:15:56.222Z,3.80
2019-05-13T12:18:29.859Z,2.80
2019-05-13T12:21:03.540Z,1.53
2019-05-13T12:23:37.255Z,4.67
2019-05-13T12:26:12.900Z,5.83
2019-05-13T12:28:42.838Z,3.63
2019-05-13T12:31:17.064Z,6.57
2019-05-13T12:33:48.618Z,2.83
2019-05-13T12:36:23.529Z,2.37
2019-05-13T12:38:54.421Z,5.07
2019-05-13T12:41:27.251Z,2.40
2019-05-13T12:44:01.597Z,0.87
2019-05-13T12:46:34.361Z,1.30
2019-05-13T12:49:06.105Z,4.10
2019-05-13T12:51:36.586Z,3.60
2019-05-13T12:54:13.391Z,3.13
2019-05-13T12:56:45.834Z,2.97
2019-05-13T12:59:18.045Z,2.07
2019-05-13T13:01:52.641Z,1.43
2019-05-13T13:04:24.623Z,4.50
2019-05-13T13:06:56.814Z,1.00
2019-05-13T13:09:27.292Z,4.33
2019-05-13T13:12:01.256Z,2.20
2019-05-13T13:14:39.238Z,1.67
2019-05-13T13:17:12.205Z,4.27
2019-05-13T13:19:43.178Z,3.60
2019-05-13T13:22:14.711Z,5.60
2019-05-13T13:24:51.688Z,2.63
2019-05-13T13:27:25.835Z,2.90
2019-05-13T13:30:02.284Z,3.40
2019-05-13T13:32:25.661Z,1.87
2019-05-13T13:34:58.300Z,4.00
2019-05-13T13:37:28.886Z,3.67
2019-05-13T13:40:02.642Z,2.43
2019-05-13T13:42:33.175Z,3.57
2019-05-13T13:45:06.045Z,4.57
2019-05-13T13:47:38.211Z,1.60
2019-05-13T13:50:11.158Z,3.50
2019-05-13T13:52:45.650Z,2.43
2019-05-13T13:55:16.166Z,3.97
2019-05-13T13:57:47.629Z,3.27
2019-05-13T14:02:54.927Z,1.53
2019-05-13T14:05:28.503Z,4.93
2019-05-13T14:07:13.616Z,3.70
2019-05-13T14:08:01.703Z,10.03
2019-05-13T14:10:41.858Z,3.03
2019-05-13T14:13:13.029Z,4.13
2019-05-13T14:15:48.237Z,1.87
2019-05-13T14:18:26.335Z,5.80
2019-05-13T14:20:53.443Z,6.33
2019-05-13T14:23:24.368Z,4.37
2019-05-13T14:25:55.857Z,4.27
2019-05-13T14:28:32.529Z,3.33
2019-05-13T14:31:06.301Z,2.53
2019-05-13T14:33:42.278Z,7.43
2019-05-13T14:36:12.457Z,6.80
2019-05-13T14:38:44.962Z,1.90
2019-05-13T14:41:26.948Z,4.60
2019-05-13T14:44:03.668Z,2.67
2019-05-13T14:46:46.741Z,1.50
2019-05-13T14:49:09.015Z,5.80
2019-05-13T14:51:41.635Z,4.50
2019-05-13T14:54:12.473Z,3.47
2019-05-13T14:56:44.234Z,1.90
2019-05-13T14:59:15.970Z,3.70
2019-05-13T15:01:47.909Z,3.43
2019-05-13T15:04:22.270Z,3.33
2019-05-13T15:06:57.475Z,6.50
2019-05-13T15:09:31.267Z,3.13
2019-05-13T15:12:02.347Z,1.63
2019-05-13T15:14:40.700Z,3.77
2019-05-13T15:17:13.753Z,1.50
2019-05-13T15:19:45.782Z,2.90
2019-05-13T15:22:17.075Z,2.10
2019-05-13T15:24:48.788Z,5.00
2019-05-13T15:27:24.158Z,2.03
2019-05-13T15:29:55.823Z,6.17
2019-05-13T15:32:32.574Z,3.40
2019-05-13T15:35:10.961Z,7.73
2019-05-13T15:37:45.051Z,1.53
2019-05-13T15:40:17.446Z,4.87
2019-05-13T15:42:51.754Z,5.63
2019-05-13T15:45:24.096Z,9.10
2019-05-13T15:47:55.921Z,5.30
2019-05-13T15:50:28.019Z,3.97
2019-05-13T15:53:02.859Z,3.00
2019-05-13T15:55:38.563Z,6.93
2019-05-13T15:58:12.898Z,6.60
2019-05-13T16:00:46.507Z,6.07
2019-05-13T16:03:18.839Z,3.27
2019-05-13T16:05:52.348Z,2.43
2019-05-13T16:08:25.980Z,4.30
2019-05-13T16:10:57.623Z,5.33
2019-05-13T16:13:31.288Z,1.67
2019-05-13T16:16:02.713Z,2.20
2019-05-13T16:18:34.275Z,4.73
2019-05-13T16:21:07.929Z,2.67
2019-05-13T16:23:42.319Z,1.73
2019-05-13T16:26:12.775Z,3.30
2019-05-13T16:28:44.965Z,2.37
2019-05-13T16:31:16.605Z,2.90
2019-05-13T16:33:52.209Z,4.37
2019-05-13T16:36:26.771Z,4.17
2019-05-13T16:39:12.797Z,4.03
2019-05-13T16:41:43.594Z,3.10
2019-05-13T16:44:17.080Z,3.93
2019-05-13T16:46:51.241Z,3.73
2019-05-13T16:49:23.954Z,2.07
2019-05-13T16:51:56.992Z,2.10
2019-05-13T16:54:32.490Z,2.53
2019-05-13T16:57:04.362Z,3.77
2019-05-13T16:59:37.599Z,2.23
2019-05-13T17:02:08.314Z,2.83
2019-05-13T17:04:41.456Z,3.07
2019-05-13T17:07:13.581Z,5.67
2019-05-13T17:09:48.092Z,2.50
2019-05-13T17:12:21.433Z,2.23
2019-05-13T17:14:55.103Z,2.80
2019-05-13T17:17:27.539Z,3.10
2019-05-13T17:19:59.300Z,3.17
2019-05-13T17:22:32.000Z,2.73
2019-05-13T17:25:04.290Z,5.20
2019-05-13T17:27:37.983Z,3.40
2019-05-13T17:30:11.531Z,3.27
2019-05-13T17:32:51.543Z,2.07
2019-05-13T17:35:23.202Z,2.80
2019-05-13T17:37:54.761Z,1.83
2019-05-13T17:40:27.050Z,3.10
2019-05-13T17:43:00.948Z,2.80
2019-05-13T17:45:36.323Z,4.50
2019-05-13T17:48:25.123Z,3.00
2019-05-13T17:50:46.756Z,4.07
2019-05-13T17:53:21.517Z,4.57
2019-05-13T17:55:55.291Z,2.60
2019-05-13T17:58:27.452Z,3.40
2019-05-13T18:01:01.779Z,2.53
2019-05-13T18:03:38.290Z,5.40
2019-05-13T18:06:14.379Z,1.93
2019-05-13T18:08:47.399Z,2.30
2019-05-13T18:11:21.921Z,4.30
2019-05-13T18:13:54.692Z,2.30
2019-05-13T18:16:32.404Z,1.67
2019-05-13T18:19:04.565Z,7.13
2019-05-13T18:21:36.900Z,2.93
2019-05-13T18:24:11.738Z,3.87
2019-05-13T18:26:52.228Z,3.47
2019-05-13T18:29:25.736Z,4.87
2019-05-13T18:32:01.986Z,6.93
2019-05-13T18:34:34.081Z,3.43
2019-05-13T18:37:06.028Z,1.60
2019-05-13T18:39:44.831Z,2.73
2019-05-13T18:42:17.436Z,3.87
2019-05-13T18:44:55.975Z,2.40
2019-05-13T18:47:28.132Z,2.47
2019-05-13T18:50:04.294Z,7.97
2019-05-13T18:52:36.540Z,2.47
2019-05-13T18:55:12.407Z,2.50
2019-05-13T18:57:45.196Z,2.90
2019-05-13T19:00:15.911Z,2.70
2019-05-13T19:02:48.178Z,4.00
2019-05-13T19:05:22.301Z,8.17
2019-05-13T19:07:54.726Z,4.57
2019-05-13T19:10:25.668Z,2.43
2019-05-13T19:12:58.058Z,2.07
2019-05-13T19:15:31.685Z,4.80
2019-05-13T19:18:04.536Z,2.77
2019-05-13T19:20:37.477Z,4.57
2019-05-13T19:23:11.857Z,2.47
2019-05-13T19:25:43.690Z,9.23
2019-05-13T19:28:15.521Z,4.60
2019-05-13T19:30:47.381Z,6.97
2019-05-13T19:33:19.256Z,2.90
2019-05-13T19:35:52.709Z,3.40
2019-05-13T19:38:25.493Z,8.77
2019-05-13T19:40:58.169Z,5.83
2019-05-13T19:43:33.397Z,2.43
2019-05-13T19:46:05.481Z,6.17
2019-05-13T19:48:41.658Z,4.80
2019-05-13T19:51:12.507Z,4.07
2019-05-13T19:53:44.903Z,2.90
2019-05-13T19:56:16.743Z,3.10
2019-05-13T19:58:47.900Z,3.60
2019-05-13T20:01:21.816Z,5.67
2019-05-13T20:03:52.621Z,2.40
2019-05-13T20:06:24.914Z,3.37
2019-05-13T20:08:57.129Z,5.43
2019-05-13T20:11:30.610Z,4.60
2019-05-13T20:14:03.240Z,3.47
2019-05-13T20:16:33.747Z,5.90
2019-05-13T20:19:05.105Z,3.27
2019-05-13T20:21:38.774Z,6.60
2019-05-13T20:24:14.067Z,4.77
2019-05-13T20:26:45.514Z,5.10
2019-05-13T20:29:17.063Z,2.93
2019-05-13T20:31:47.695Z,1.57
2019-05-13T20:34:22.190Z,4.37
2019-05-13T20:36:58.202Z,4.10
2019-05-13T20:39:31.937Z,5.40
2019-05-13T20:42:08.438Z,3.03
2019-05-13T20:44:41.802Z,8.83
2019-05-13T20:47:12.608Z,4.80
2019-05-13T20:49:58.184Z,2.23
2019-05-13T20:52:17.728Z,5.80
2019-05-13T20:54:51.223Z,1.17
2019-05-13T20:57:25.914Z,4.40
2019-05-13T20:59:58.363Z,2.10
2019-05-13T21:02:32.708Z,4.73
2019-05-13T21:05:05.397Z,3.53
2019-05-13T21:07:36.293Z,4.23
2019-05-13T21:10:08.748Z,4.27
2019-05-13T21:12:41.996Z,8.93
2019-05-13T21:15:13.200Z,2.50
2019-05-13T21:17:45.514Z,5.30
2019-05-13T21:20:25.095Z,1.97
2019-05-13T21:22:54.116Z,5.13
2019-05-13T21:25:26.720Z,3.67
2019-05-13T21:27:59.011Z,3.77
2019-05-13T21:30:30.216Z,8.30
2019-05-13T21:33:02.421Z,2.17
2019-05-13T21:35:33.190Z,7.03
2019-05-13T21:38:05.136Z,6.53
2019-05-13T21:40:37.336Z,3.10
2019-05-13T21:43:10.576Z,4.07
2019-05-13T21:45:42.224Z,4.13
2019-05-13T21:48:14.272Z,3.07
2019-05-13T21:50:45.089Z,4.03
2019-05-13T21:53:16.786Z,3.03
2019-05-13T21:55:48.677Z,3.30
2019-05-13T21:58:22.230Z,4.77
2019-05-13T22:00:53.328Z,5.07
2019-05-13T22:03:24.463Z,4.13
2019-05-13T22:05:57.180Z,1.90
2019-05-13T22:08:28.569Z,9.03
2019-05-13T22:11:01.761Z,8.13
2019-05-13T22:13:35.118Z,2.53
2019-05-13T22:16:06.980Z,4.93
2019-05-13T22:18:41.593Z,2.27
2019-05-13T22:21:12.838Z,5.27
2019-05-13T22:23:44.031Z,6.90
2019-05-13T22:26:15.139Z,4.27
2019-05-13T22:28:45.870Z,5.13
2019-05-13T22:31:18.376Z,6.60
2019-05-13T22:33:49.084Z,3.90
2019-05-13T22:36:22.814Z,3.03
2019-05-13T22:38:54.964Z,2.83
2019-05-13T22:41:31.208Z,3.80
2019-05-13T22:44:02.229Z,6.70
2019-05-13T22:46:33.287Z,3.53
2019-05-13T22:49:04.455Z,4.40
2019-05-13T22:51:36.676Z,4.50
2019-05-13T22:54:07.101Z,2.93
2019-05-13T22:56:41.058Z,2.77
2019-05-13T22:59:12.313Z,5.03
2019-05-13T23:01:44.271Z,2.73
2019-05-13T23:04:16.338Z,3.07
2019-05-13T23:06:47.451Z,4.37
2019-05-13T23:09:17.907Z,3.17
2019-05-13T23:11:48.307Z,7.27
2019-05-13T23:14:22.009Z,5.97
2019-05-13T23:16:53.925Z,5.20
2019-05-13T23:19:26.778Z,2.80
2019-05-13T23:22:01.630Z,6.23
2019-05-13T23:24:33.056Z,1.77
2019-05-13T23:27:04.542Z,3.60
2019-05-13T23:29:35.353Z,4.10
2019-05-13T23:32:06.883Z,3.07
2019-05-13T23:34:37.324Z,3.23
2019-05-13T23:37:07.757Z,3.73
2019-05-13T23:39:38.497Z,2.87
2019-05-13T23:42:12.413Z,5.77
2019-05-13T23:44:47.027Z,1.83
2019-05-13T23:47:18.579Z,3.90
2019-05-13T23:49:51.385Z,5.80
2019-05-13T23:52:22.249Z,6.50
2019-05-13T23:54:52.979Z,5.73
2019-05-13T23:57:25.918Z,1.97
2019-05-13T23:59:57.628Z,5.30
